createdAt,value
2023-05-22T00:00:52.845Z,99080.91
2023-05-22T00:03:20.670Z,99088.59
2023-05-22T00:05:48.274Z,99084.25
2023-05-22T00:08:15.729Z,99085.56
2023-05-22T00:10:43.390Z,99083.16
2023-05-22T00:13:10.799Z,99083.31
2023-05-22T00:15:38.293Z,99087.91
2023-05-22T00:18:06.508Z,99083.09
2023-05-22T00:20:38.906Z,99083.94
2023-05-22T00:23:12.588Z,99078.13
2023-05-22T00:25:41.383Z,99076.25
2023-05-22T00:28:09.280Z,99078.91
2023-05-22T00:30:37.288Z,99080.13
2023-05-22T00:33:04.940Z,99075.91
2023-05-22T00:35:33.356Z,99072.50
2023-05-22T00:38:03.677Z,99076.22
2023-05-22T00:40:31.318Z,99076.56
2023-05-22T00:42:59.278Z,99079.78
2023-05-22T00:45:27.924Z,99085.91
2023-05-22T00:47:55.426Z,99080.66
2023-05-22T00:50:23.150Z,99077.13
2023-05-22T00:52:50.549Z,99072.94
2023-05-22T00:55:17.944Z,99080.44
2023-05-22T00:57:46.043Z,99077.31
2023-05-22T01:00:15.415Z,99085.78
2023-05-22T01:02:43.201Z,99070.19
2023-05-22T01:05:13.582Z,99074.47
2023-05-22T01:07:41.058Z,99072.31
2023-05-22T01:10:08.975Z,99074.34
2023-05-22T01:12:42.721Z,99078.53
2023-05-22T01:15:42.482Z,99072.97
2023-05-22T01:18:31.591Z,99063.81
2023-05-22T01:21:24.262Z,99065.56
2023-05-22T01:23:54.197Z,99064.47
2023-05-22T01:26:37.995Z,99070.69
2023-05-22T01:29:21.058Z,99068.56
2023-05-22T01:31:50.556Z,99071.13
2023-05-22T01:34:19.021Z,99069.47
2023-05-22T01:36:47.311Z,99067.75
2023-05-22T01:39:15.189Z,99068.06
2023-05-22T01:41:43.266Z,99068.91
2023-05-22T01:44:11.527Z,99065.06
2023-05-22T01:46:39.112Z,99066.84
2023-05-22T01:49:09.100Z,99059.81
2023-05-22T01:51:51.820Z,99057.25
2023-05-22T01:54:46.815Z,99049.97
2023-05-22T01:57:28.949Z,99046.41
2023-05-22T02:00:09.879Z,99042.72
2023-05-22T02:02:47.123Z,99038.25
2023-05-22T02:05:18.405Z,99035.69
2023-05-22T02:07:46.506Z,99036.81
2023-05-22T02:10:14.748Z,99042.50
2023-05-22T02:12:42.580Z,99047.91
2023-05-22T02:15:10.214Z,99038.22
2023-05-22T02:17:40.677Z,99040.84
2023-05-22T02:20:15.148Z,99038.88
2023-05-22T02:22:44.522Z,99041.72
2023-05-22T02:25:14.805Z,99036.62
2023-05-22T02:27:46.570Z,99035.41
2023-05-22T02:30:14.787Z,99034.34
2023-05-22T02:32:42.815Z,99041.75
2023-05-22T02:35:10.968Z,99039.19
2023-05-22T02:37:38.665Z,99035.75
2023-05-22T02:40:07.803Z,99032.28
2023-05-22T02:42:35.919Z,99031.34
2023-05-22T02:45:03.771Z,99028.13
2023-05-22T02:47:34.364Z,99024.34
2023-05-22T02:50:02.113Z,99022.38
2023-05-22T02:52:31.609Z,99020.47
2023-05-22T02:54:59.093Z,99028.28
2023-05-22T02:57:27.153Z,99031.72
2023-05-22T02:59:54.582Z,99024.66
2023-05-22T03:02:22.022Z,99025.72
2023-05-22T03:04:50.103Z,99028.09
2023-05-22T03:07:17.550Z,99026.53
2023-05-22T03:09:44.992Z,99034.47
2023-05-22T03:12:12.742Z,99028.66
2023-05-22T03:14:40.312Z,99027.91
2023-05-22T03:17:07.918Z,99021.12
2023-05-22T03:19:35.874Z,99021.44
2023-05-22T03:22:03.907Z,99023.88
2023-05-22T03:24:32.300Z,99022.38
2023-05-22T03:27:00.876Z,99027.72
2023-05-22T03:29:30.216Z,99025.25
2023-05-22T03:31:58.110Z,99019.75
2023-05-22T03:34:27.487Z,99022.12
2023-05-22T03:37:04.816Z,99026.56
2023-05-22T03:39:32.978Z,99016.25
2023-05-22T03:42:01.268Z,99019.19
2023-05-22T03:44:29.594Z,99027.38
2023-05-22T03:46:57.548Z,99027.81
2023-05-22T03:49:25.036Z,99021.50
2023-05-22T03:51:52.434Z,99019.56
2023-05-22T03:54:20.163Z,99020.53
2023-05-22T03:56:48.096Z,99020.28
2023-05-22T03:59:16.410Z,99019.41
2023-05-22T04:01:46.613Z,99024.91
2023-05-22T04:04:14.745Z,99019.47
2023-05-22T04:06:44.942Z,99020.53
2023-05-22T04:09:13.591Z,99024.81
2023-05-22T04:11:42.303Z,99030.72
2023-05-22T04:14:09.938Z,99026.50
2023-05-22T04:16:37.754Z,99027.44
2023-05-22T04:19:05.844Z,99025.41
2023-05-22T04:21:34.435Z,99023.88
2023-05-22T04:24:07.330Z,99033.00
2023-05-22T04:26:36.136Z,99032.16
2023-05-22T04:29:04.070Z,99023.97
2023-05-22T04:31:32.559Z,99032.81
2023-05-22T04:34:00.245Z,99035.19
2023-05-22T04:36:29.165Z,99037.75
2023-05-22T04:38:57.010Z,99040.37
2023-05-22T04:41:26.664Z,99031.72
2023-05-22T04:43:54.826Z,99031.41
2023-05-22T04:46:22.577Z,99036.38
2023-05-22T04:48:51.023Z,99037.78
2023-05-22T04:51:18.776Z,99051.75
2023-05-22T04:53:47.314Z,99048.44
2023-05-22T04:56:18.618Z,99047.19
2023-05-22T04:58:53.922Z,99037.22
2023-05-22T05:01:21.853Z,99042.00
2023-05-22T05:03:49.441Z,99048.97
2023-05-22T05:06:17.365Z,99048.78
2023-05-22T05:08:46.743Z,99052.19
2023-05-22T05:11:14.445Z,99049.44
2023-05-22T05:13:43.193Z,99055.37
2023-05-22T05:16:10.659Z,99046.63
2023-05-22T05:18:38.387Z,99050.84
2023-05-22T05:21:07.024Z,99056.81
2023-05-22T05:23:34.458Z,99054.16
2023-05-22T05:26:05.460Z,99060.66
2023-05-22T05:28:33.200Z,99060.34
2023-05-22T05:31:02.047Z,99057.66
2023-05-22T05:33:30.165Z,99058.72
2023-05-22T05:35:58.245Z,99061.28
2023-05-22T05:38:25.874Z,99056.41
2023-05-22T05:40:53.981Z,99051.97
2023-05-22T05:43:21.781Z,99059.88
2023-05-22T05:45:50.323Z,99060.47
2023-05-22T05:48:17.776Z,99067.31
2023-05-22T05:50:45.639Z,99065.41
2023-05-22T05:53:13.062Z,99067.88
2023-05-22T05:55:42.988Z,99059.72
2023-05-22T05:58:10.783Z,99066.19
2023-05-22T06:00:39.230Z,99058.50
2023-05-22T06:03:07.263Z,99068.78
2023-05-22T06:05:35.548Z,99058.28
2023-05-22T06:08:04.372Z,99068.22
2023-05-22T06:10:32.522Z,99069.31
2023-05-22T06:13:00.950Z,99063.09
2023-05-22T06:15:28.961Z,99068.53
2023-05-22T06:17:57.022Z,99062.87
2023-05-22T06:20:25.234Z,99060.31
2023-05-22T06:22:52.819Z,99049.72
2023-05-22T06:25:20.554Z,99050.25
2023-05-22T06:27:48.147Z,99053.34
2023-05-22T06:30:28.296Z,99058.13
2023-05-22T06:33:05.221Z,99052.41
2023-05-22T06:35:32.709Z,99056.84
2023-05-22T06:38:00.172Z,99049.28
2023-05-22T06:40:28.648Z,99057.16
2023-05-22T06:42:57.985Z,99057.66
2023-05-22T06:45:26.839Z,99074.38
2023-05-22T06:47:56.724Z,99059.91
2023-05-22T06:50:24.870Z,99069.13
2023-05-22T06:52:52.624Z,99067.38
2023-05-22T06:55:20.862Z,99064.97
2023-05-22T06:57:49.668Z,99066.59
2023-05-22T07:02:48.144Z,99070.69
2023-05-22T07:05:16.001Z,99058.09
2023-05-22T07:07:44.697Z,99070.13
2023-05-22T07:10:12.606Z,99062.69
2023-05-22T07:12:40.038Z,99061.00
2023-05-22T07:15:11.827Z,99058.66
2023-05-22T07:17:41.825Z,99055.81
2023-05-22T07:20:12.019Z,99062.13
2023-05-22T07:22:41.524Z,99060.62
2023-05-22T07:25:09.234Z,99068.28
2023-05-22T07:27:36.939Z,99076.31
2023-05-22T07:30:05.514Z,99080.75
2023-05-22T07:32:33.391Z,99074.31
2023-05-22T07:35:01.056Z,99084.56
2023-05-22T07:37:30.019Z,99071.13
2023-05-22T07:39:57.693Z,99069.16
2023-05-22T07:42:26.144Z,99075.97
2023-05-22T07:44:54.576Z,99068.69
2023-05-22T07:47:22.167Z,99065.63
2023-05-22T07:49:50.147Z,99070.06
2023-05-22T07:52:18.541Z,99063.66
2023-05-22T07:54:46.405Z,99066.69
2023-05-22T07:57:14.154Z,99065.75
2023-05-22T07:59:44.127Z,99070.00
2023-05-22T08:02:11.748Z,99067.03
2023-05-22T08:04:39.820Z,99067.22
2023-05-22T08:07:07.426Z,99073.03
2023-05-22T08:09:35.012Z,99073.72
2023-05-22T08:12:03.012Z,99063.50
2023-05-22T08:14:30.494Z,99065.19
2023-05-22T08:16:59.232Z,99068.16
2023-05-22T08:19:27.066Z,99064.50
2023-05-22T08:21:58.355Z,99056.63
2023-05-22T08:24:30.514Z,99076.31
2023-05-22T08:26:58.777Z,99060.28
2023-05-22T08:29:26.292Z,99065.97
2023-05-22T08:31:56.795Z,99061.19
2023-05-22T08:34:25.487Z,99065.38
2023-05-22T08:36:52.957Z,99063.41
2023-05-22T08:39:20.699Z,99068.56
2023-05-22T08:41:49.147Z,99063.28
2023-05-22T08:44:16.755Z,99063.25
2023-05-22T08:46:45.505Z,99067.66
2023-05-22T08:49:13.626Z,99061.47
2023-05-22T08:51:44.966Z,99068.12
2023-05-22T08:54:12.879Z,99066.22
2023-05-22T08:56:52.915Z,99073.00
2023-05-22T08:59:24.030Z,99074.72
2023-05-22T09:01:52.467Z,99070.22
2023-05-22T09:04:23.193Z,99071.41
2023-05-22T09:06:51.868Z,99068.91
2023-05-22T09:09:19.649Z,99062.81
2023-05-22T09:11:47.112Z,99064.94
2023-05-22T09:14:16.081Z,99059.66
2023-05-22T09:16:48.373Z,99072.28
2023-05-22T09:19:16.551Z,99065.47
2023-05-22T09:21:48.092Z,99063.59
2023-05-22T09:24:15.963Z,99064.31
2023-05-22T09:26:43.401Z,99067.75
2023-05-22T09:29:11.010Z,99073.78
2023-05-22T09:31:43.091Z,99069.09
2023-05-22T09:34:14.058Z,99061.41
2023-05-22T09:36:42.588Z,99061.97
2023-05-22T09:39:10.083Z,99059.62
2023-05-22T09:41:39.236Z,99063.53
2023-05-22T09:44:14.290Z,99067.16
2023-05-22T09:46:44.716Z,99055.59
2023-05-22T09:49:15.725Z,99057.72
2023-05-22T09:51:47.916Z,99052.28
2023-05-22T09:54:17.359Z,99054.56
2023-05-22T09:56:48.195Z,99060.47
2023-05-22T09:59:22.524Z,99056.78
2023-05-22T10:01:50.521Z,99056.00
2023-05-22T10:04:18.759Z,99049.06
2023-05-22T10:06:50.928Z,99059.00
2023-05-22T10:09:22.169Z,99049.81
2023-05-22T10:11:53.118Z,99045.72
2023-05-22T10:14:21.073Z,99049.84
2023-05-22T10:16:48.728Z,99039.19
2023-05-22T10:19:16.949Z,99039.03
2023-05-22T10:21:45.732Z,99044.09
2023-05-22T10:24:13.609Z,99038.66
2023-05-22T10:26:41.159Z,99042.06
2023-05-22T10:29:16.339Z,99030.00
2023-05-22T10:31:51.393Z,99028.25
2023-05-22T10:34:39.098Z,99034.50
2023-05-22T10:37:19.332Z,99027.78
2023-05-22T10:40:00.949Z,99014.62
2023-05-22T10:42:31.965Z,99015.16
2023-05-22T10:45:03.822Z,99009.25
2023-05-22T10:47:33.798Z,99010.16
2023-05-22T10:50:05.510Z,99010.31
2023-05-22T10:52:33.000Z,99007.00
2023-05-22T10:55:01.456Z,99001.59
2023-05-22T10:57:34.382Z,99003.59
2023-05-22T11:00:16.239Z,98999.31
2023-05-22T11:02:46.115Z,99001.50
2023-05-22T11:05:17.174Z,98993.31
2023-05-22T11:07:45.078Z,98993.09
2023-05-22T11:10:12.485Z,98988.13
2023-05-22T11:12:41.481Z,98982.88
2023-05-22T11:15:11.393Z,98977.13
2023-05-22T11:17:44.982Z,98980.72
2023-05-22T11:20:18.420Z,98974.25
2023-05-22T11:23:03.612Z,98977.56
2023-05-22T11:25:33.183Z,98981.94
2023-05-22T11:28:02.826Z,98980.69
2023-05-22T11:30:30.973Z,98973.09
2023-05-22T11:33:00.060Z,98965.84
2023-05-22T11:35:28.625Z,98962.34
2023-05-22T11:37:56.658Z,98961.84
2023-05-22T11:40:29.771Z,98968.62
2023-05-22T11:42:57.594Z,98963.91
2023-05-22T11:45:25.337Z,98961.75
2023-05-22T11:47:52.981Z,98963.69
2023-05-22T11:50:29.866Z,98959.41
2023-05-22T11:53:08.292Z,98958.44
2023-05-22T11:55:36.070Z,98956.16
2023-05-22T11:58:03.510Z,98959.69
2023-05-22T12:00:31.596Z,98955.56
2023-05-22T12:02:59.903Z,98953.25
2023-05-22T12:05:27.475Z,98962.72
2023-05-22T12:07:54.959Z,98951.97
2023-05-22T12:10:22.758Z,98946.94
2023-05-22T12:12:50.301Z,98953.59
2023-05-22T12:15:21.213Z,98941.84
2023-05-22T12:17:49.090Z,98942.47
2023-05-22T12:20:16.654Z,98943.66
2023-05-22T12:22:44.305Z,98938.62
2023-05-22T12:25:17.255Z,98936.16
2023-05-22T12:27:48.006Z,98930.94
2023-05-22T12:30:16.734Z,98934.25
2023-05-22T12:32:49.440Z,98930.25
2023-05-22T12:35:18.105Z,98941.31
2023-05-22T12:37:50.254Z,98923.78
2023-05-22T12:40:18.268Z,98916.75
2023-05-22T12:42:45.871Z,98911.25
2023-05-22T12:45:13.886Z,98926.19
2023-05-22T12:47:41.728Z,98919.22
2023-05-22T12:50:09.566Z,98913.41
2023-05-22T12:52:37.004Z,98910.75
2023-05-22T12:55:05.015Z,98905.19
2023-05-22T12:57:32.440Z,98900.41
2023-05-22T12:59:59.871Z,98896.78
2023-05-22T13:02:27.694Z,98900.88
2023-05-22T13:04:55.315Z,98890.50
2023-05-22T13:07:22.856Z,98892.22
2023-05-22T13:09:50.566Z,98885.75
2023-05-22T13:12:19.301Z,98884.91
2023-05-22T13:14:47.004Z,98889.31
2023-05-22T13:17:14.779Z,98881.06
2023-05-22T13:19:42.188Z,98879.31
2023-05-22T13:22:09.681Z,98877.19
2023-05-22T13:24:37.339Z,98872.00
2023-05-22T13:27:04.885Z,98873.37
2023-05-22T13:29:33.047Z,98871.59
2023-05-22T13:32:01.362Z,98873.84
2023-05-22T13:34:29.439Z,98864.75
2023-05-22T13:36:57.020Z,98862.91
2023-05-22T13:39:26.712Z,98860.38
2023-05-22T13:41:54.252Z,98866.25
2023-05-22T13:44:22.009Z,98872.13
2023-05-22T13:46:49.836Z,98869.00
2023-05-22T13:49:17.303Z,98865.25
2023-05-22T13:51:44.676Z,98870.59
2023-05-22T13:54:12.332Z,98865.63
2023-05-22T13:56:39.749Z,98865.44
2023-05-22T13:59:09.165Z,98867.22
2023-05-22T14:01:37.801Z,98860.09
2023-05-22T14:04:06.400Z,98859.63
2023-05-22T14:06:34.211Z,98857.28
2023-05-22T14:09:01.769Z,98856.72
2023-05-22T14:11:30.199Z,98854.91
2023-05-22T14:13:57.634Z,98854.38
2023-05-22T14:16:25.131Z,98852.69
2023-05-22T14:18:52.990Z,98857.91
2023-05-22T14:21:20.640Z,98853.53
2023-05-22T14:23:48.117Z,98842.22
2023-05-22T14:26:15.750Z,98844.16
2023-05-22T14:28:43.477Z,98845.09
2023-05-22T14:31:11.413Z,98842.75
2023-05-22T14:33:39.142Z,98836.88
2023-05-22T14:36:06.617Z,98846.69
2023-05-22T14:38:34.436Z,98835.28
2023-05-22T14:41:02.324Z,98838.44
2023-05-22T14:43:29.881Z,98847.56
2023-05-22T14:45:58.253Z,98839.94
2023-05-22T14:48:26.603Z,98841.06
2023-05-22T14:50:54.329Z,98829.09
2023-05-22T14:53:22.142Z,98836.63
2023-05-22T14:55:50.149Z,98833.94
2023-05-22T14:58:17.596Z,98836.66
2023-05-22T15:00:47.120Z,98841.00
2023-05-22T15:03:14.916Z,98839.81
2023-05-22T15:05:42.524Z,98828.38
2023-05-22T15:08:10.214Z,98834.47
2023-05-22T15:10:37.908Z,98828.16
2023-05-22T15:13:05.595Z,98833.06
2023-05-22T15:15:33.313Z,98840.28
2023-05-22T15:18:02.813Z,98830.94
2023-05-22T15:20:31.305Z,98836.63
2023-05-22T15:22:59.636Z,98831.19
2023-05-22T15:25:27.616Z,98830.50
2023-05-22T15:27:55.070Z,98826.56
2023-05-22T15:30:23.535Z,98821.31
2023-05-22T15:32:51.403Z,98819.16
2023-05-22T15:35:18.855Z,98820.09
2023-05-22T15:37:46.514Z,98815.91
2023-05-22T15:40:17.325Z,98817.25
2023-05-22T15:42:44.885Z,98816.75
2023-05-22T15:45:12.365Z,98821.41
2023-05-22T15:47:40.089Z,98817.06
2023-05-22T15:50:07.778Z,98824.47
2023-05-22T15:52:35.571Z,98818.16
2023-05-22T15:55:03.630Z,98818.97
2023-05-22T15:57:31.208Z,98809.25
2023-05-22T15:59:58.658Z,98813.81
2023-05-22T16:02:26.796Z,98810.41
2023-05-22T16:04:54.786Z,98809.81
2023-05-22T16:07:22.235Z,98811.53
2023-05-22T16:09:50.357Z,98807.06
2023-05-22T16:12:20.184Z,98806.78
2023-05-22T16:14:47.677Z,98812.00
2023-05-22T16:17:17.343Z,98804.66
2023-05-22T16:19:45.027Z,98810.28
2023-05-22T16:22:12.484Z,98805.63
2023-05-22T16:24:39.914Z,98806.09
2023-05-22T16:27:11.878Z,98815.03
2023-05-22T16:29:39.319Z,98815.25
2023-05-22T16:32:07.038Z,98816.22
2023-05-22T16:34:34.874Z,98828.78
2023-05-22T16:37:02.306Z,98825.75
2023-05-22T16:39:29.696Z,98837.19
2023-05-22T16:41:57.456Z,98830.22
2023-05-22T16:44:24.886Z,98815.19
2023-05-22T16:46:52.702Z,98821.63
2023-05-22T16:49:20.528Z,98815.78
2023-05-22T16:51:49.089Z,98810.19
2023-05-22T16:54:16.537Z,98821.59
2023-05-22T16:56:44.375Z,98823.62
2023-05-22T16:59:11.839Z,98823.91
2023-05-22T17:01:39.499Z,98827.37
2023-05-22T17:04:07.223Z,98831.25
2023-05-22T17:06:36.250Z,98833.19
2023-05-22T17:09:03.733Z,98846.81
2023-05-22T17:11:31.479Z,98836.72
2023-05-22T17:13:58.894Z,98837.34
2023-05-22T17:16:26.361Z,98838.50
2023-05-22T17:18:55.090Z,98840.13
2023-05-22T17:21:22.866Z,98845.50
2023-05-22T17:23:50.514Z,98850.87
2023-05-22T17:26:18.287Z,98843.00
2023-05-22T17:28:45.719Z,98840.81
2023-05-22T17:31:13.702Z,98845.44
2023-05-22T17:33:41.613Z,98832.00
2023-05-22T17:36:09.063Z,98837.09
2023-05-22T17:38:37.828Z,98840.31
2023-05-22T17:41:05.586Z,98838.88
2023-05-22T17:43:35.221Z,98847.44
2023-05-22T17:46:02.674Z,98852.25
2023-05-22T17:48:30.432Z,98844.94
2023-05-22T17:50:59.419Z,98839.47
2023-05-22T17:53:27.022Z,98846.31
2023-05-22T17:55:54.714Z,98846.31
2023-05-22T17:58:22.248Z,98854.53
2023-05-22T18:00:49.794Z,98855.78
2023-05-22T18:03:20.541Z,98855.72
2023-05-22T18:05:51.498Z,98875.09
2023-05-22T18:08:21.286Z,98874.59
2023-05-22T18:10:48.978Z,98871.28
2023-05-22T18:13:16.436Z,98878.38
2023-05-22T18:15:44.189Z,98878.44
2023-05-22T18:18:13.141Z,98885.25
2023-05-22T18:20:40.944Z,98881.22
2023-05-22T18:23:08.830Z,98890.22
2023-05-22T18:25:36.256Z,98885.06
2023-05-22T18:28:03.670Z,98880.44
2023-05-22T18:30:32.310Z,98878.84
2023-05-22T18:32:59.840Z,98879.22
2023-05-22T18:35:27.421Z,98880.56
2023-05-22T18:37:55.147Z,98872.66
2023-05-22T18:40:22.617Z,98876.41
2023-05-22T18:42:50.224Z,98887.19
2023-05-22T18:45:20.856Z,98875.75
2023-05-22T18:47:50.580Z,98874.41
2023-05-22T18:50:18.231Z,98872.69
2023-05-22T18:52:46.017Z,98876.34
2023-05-22T18:55:13.429Z,98872.75
2023-05-22T18:57:40.920Z,98873.47
2023-05-22T19:00:10.315Z,98871.81
2023-05-22T19:02:37.782Z,98873.47
2023-05-22T19:05:05.801Z,98870.75
2023-05-22T19:07:33.562Z,98874.63
2023-05-22T19:10:00.994Z,98880.78
2023-05-22T19:12:31.738Z,98882.56
2023-05-22T19:15:00.122Z,98890.06
2023-05-22T19:17:27.717Z,98892.66
2023-05-22T19:19:55.175Z,98898.78
2023-05-22T19:22:24.217Z,98900.38
2023-05-22T19:24:51.685Z,98904.28
2023-05-22T19:27:19.230Z,98904.28
2023-05-22T19:29:46.922Z,98908.09
2023-05-22T19:32:14.428Z,98906.78
2023-05-22T19:34:42.216Z,98910.03
2023-05-22T19:37:09.998Z,98914.88
2023-05-22T19:39:38.487Z,98918.91
2023-05-22T19:42:08.210Z,98908.34
2023-05-22T19:44:36.057Z,98913.13
2023-05-22T19:47:03.540Z,98917.69
2023-05-22T19:49:31.783Z,98913.19
2023-05-22T19:51:59.573Z,98913.72
2023-05-22T19:54:26.964Z,98916.41
2023-05-22T19:56:54.562Z,98916.69
2023-05-22T19:59:22.312Z,98918.47
2023-05-22T20:01:51.491Z,98911.47
2023-05-22T20:04:21.650Z,98909.47
2023-05-22T20:06:49.169Z,98905.34
2023-05-22T20:09:16.882Z,98917.31
2023-05-22T20:11:44.556Z,98915.59
2023-05-22T20:14:13.035Z,98918.44
2023-05-22T20:16:40.687Z,98922.66
2023-05-22T20:19:09.158Z,98917.78
2023-05-22T20:21:37.009Z,98908.75
2023-05-22T20:24:06.171Z,98915.91
2023-05-22T20:26:36.853Z,98908.31
2023-05-22T20:29:04.374Z,98904.19
2023-05-22T20:31:31.842Z,98897.84
2023-05-22T20:34:01.986Z,98892.22
2023-05-22T20:36:31.531Z,98899.47
2023-05-22T20:39:00.858Z,98900.25
2023-05-22T20:41:28.362Z,98902.53
2023-05-22T20:43:56.126Z,98899.28
2023-05-22T20:46:24.402Z,98897.75
2023-05-22T20:48:52.029Z,98895.37
2023-05-22T20:51:20.661Z,98900.72
2023-05-22T20:53:49.624Z,98903.84
2023-05-22T20:56:17.077Z,98906.25
2023-05-22T20:58:45.753Z,98903.87
2023-05-22T21:22:41.697Z,98889.88
2023-05-22T21:25:09.717Z,98895.31
2023-05-22T21:27:37.113Z,98891.41
2023-05-22T21:30:05.241Z,98895.78
2023-05-22T21:32:33.376Z,98892.00
2023-05-22T21:35:03.521Z,98894.88
2023-05-22T21:37:31.034Z,98889.63
2023-05-22T21:39:58.893Z,98891.47
2023-05-22T21:42:26.388Z,98899.62
2023-05-22T21:44:53.865Z,98897.59
2023-05-22T21:47:21.744Z,98902.31
2023-05-22T21:49:49.838Z,98903.69
2023-05-22T21:52:17.415Z,98893.25
2023-05-22T21:54:45.197Z,98903.56
2023-05-22T21:57:12.851Z,98899.66
2023-05-22T21:59:40.385Z,98891.47
2023-05-22T22:02:08.740Z,98889.28
2023-05-22T22:04:36.709Z,98886.25
2023-05-22T22:07:04.631Z,98896.56
2023-05-22T22:09:32.258Z,98892.25
2023-05-22T22:12:00.790Z,98881.41
2023-05-22T22:14:28.222Z,98896.34
2023-05-22T22:16:56.514Z,98897.50
2023-05-22T22:19:24.963Z,98891.31
2023-05-22T22:21:52.860Z,98886.75
2023-05-22T22:24:20.576Z,98893.44
2023-05-22T22:26:49.293Z,98892.16
2023-05-22T22:29:17.394Z,98889.94
2023-05-22T22:31:45.683Z,98893.09
2023-05-22T22:34:13.458Z,98887.41
2023-05-22T22:36:40.898Z,98895.59
2023-05-22T22:39:08.456Z,98899.91
2023-05-22T22:41:36.279Z,98893.47
2023-05-22T22:44:03.952Z,98885.34
2023-05-22T22:46:31.653Z,98896.66
2023-05-22T22:49:01.831Z,98896.50
2023-05-22T22:51:31.686Z,98894.25
2023-05-22T22:53:59.489Z,98886.28
2023-05-22T22:56:30.253Z,98892.31
2023-05-22T22:58:57.740Z,98888.78
2023-05-22T23:01:28.842Z,98885.38
2023-05-22T23:03:56.272Z,98886.16
2023-05-22T23:06:23.932Z,98883.75
2023-05-22T23:08:51.658Z,98880.28
2023-05-22T23:11:19.168Z,98878.19
2023-05-22T23:13:46.634Z,98872.16
2023-05-22T23:16:14.901Z,98873.75
2023-05-22T23:18:42.770Z,98873.37
2023-05-22T23:21:10.248Z,98872.97
2023-05-22T23:23:37.964Z,98871.44
2023-05-22T23:26:05.788Z,98877.62
2023-05-22T23:28:33.351Z,98874.75
2023-05-22T23:31:01.572Z,98877.56
2023-05-22T23:33:29.363Z,98872.59
2023-05-22T23:35:57.105Z,98880.69
2023-05-22T23:38:24.844Z,98880.69
2023-05-22T23:40:52.503Z,98876.00
2023-05-22T23:43:20.950Z,98876.28
2023-05-22T23:45:48.926Z,98881.25
2023-05-22T23:48:16.938Z,98877.22
2023-05-22T23:50:45.041Z,98880.72
2023-05-22T23:53:13.095Z,98880.00
2023-05-22T23:55:40.963Z,98879.91
2023-05-22T23:58:09.564Z,98886.03
